Terminal Aerodrome Forecast
Issued by NWS

Home | Current Version | Previous Version | Text Only | Print | Product List | Glossary On
Versions: 1 2 3 4 5 6 7 8 9 10 11 12 13 14 15 16 17 18 19 20 21 22 23 24 25 26 27 28 29 30 31 32 33 34 35 36 37 38 39 40 41 42 43 44 45
000
FTUS45 KSLC 191737
TAF36U
TAF
K36U 191737Z 1918/2018 30008KT P6SM BKN035 OVC040
      TEMPO 1918/1920 5SM -SNRA
     FM192100 21012KT 2SM -SN BR SCT007 BKN015
     FM200200 VRB05KT P6SM -SHSN SCT007 BKN015
     FM201700 20006KT P6SM VCSH BKN010 OVC050=

USA.gov is the U.S. government's official web portal to all federal, state and local government web resources and services.